Terminal Aerodrome Forecast
Issued by NWS

Home | Current Version | Previous Version | Text Only | Print | Product List | Glossary On
Versions: 1 2 3 4 5 6 7 8 9 10 11 12 13
000
FTUS45 KFGZ 210531
TAFPGA
TAF
KPGA 210531Z 2106/2206 03008KT P6SM SCT120
     FM211800 01003KT P6SM SCT090
      TEMPO 2120/2124 P6SM TSRA BKN050CB=

USA.gov is the U.S. government's official web portal to all federal, state and local government web resources and services.